Terminal Aerodrome Forecast
Issued by NWS

Current Version | Previous Version | Text Only | Print | Product List | Glossary On
Versions: 1 2 3 4 5 6 7 8 9 10 11 12 13 14 15 16 17 18 19 20 21 22 23 24 25 26 27 28 29 30 31 32
000
FTUS42 KGSP 052340
TAFHKY
TAF
KHKY 052340Z 0600/0624 VRB02KT P6SM -RA OVC090
     FM060200 VRB02KT 4SM -RA BR BKN020 OVC045
      TEMPO 0604/0607 2SM +RA BR OVC008
     FM060700 07005KT 3SM RA BR OVC003
     FM060900 07006KT 2SM -RA BR OVC003
     FM061700 04005KT 3SM BR OVC003 PROB30 0617/0622 2SM -RA BR
     FM062200 VRB02KT P6SM BKN003=

USA.gov is the U.S. government's official web portal to all federal, state and local government web resources and services.